Latest Weather Observations for Condobolin Airport

IDN60801

Issued at 11:02 pm EST Monday 3 August 2015 (issued every 30 minutes, with the page automatically refreshed every 10 minutes)

About weather observations | Map of weather stations | Latest weather observations for NSW | Other Formats
Station Details ID: 050137 Name: CONDOBOLIN AIRPORT AWS Lat: -33.07 Lon: 147.21 Height: 192.6 m
Data from the previous 72 hours. | See also: Recent months at Condobolin Airport
Date/Time
EST
Temp
°C
App
Temp
°C
Dew
Point
Rel
Hum
%
Delta-T
°C
Wind Press
QNH
hPa
Press
MSL
hPa
Rain
since 9 am
mm
Dir
 
Spd
km/h
Gust
km/h
Spd
kts
Gust
kts
03/11:00pm 7.9 5.0 4.8 81 1.4 WSW 9 11 5 6 1024.2 1024.5 0.0
03/10:30pm 7.6 5.1 4.7 82 1.3 SW 7 11 4 6 1024.2 1024.5 0.0
03/10:00pm 8.0 5.5 4.8 80 1.4 SSW 7 9 4 5 1024.1 1024.4 0.0
03/09:30pm 8.3 5.1 4.9 79 1.5 WSW 11 15 6 8 1024.1 1024.4 0.0
03/09:00pm 8.3 5.1 5.1 80 1.4 WSW 11 13 6 7 1023.9 1024.2 0.0
03/08:30pm 9.0 5.5 5.4 78 1.6 WSW 13 17 7 9 1023.7 1024.0 0.0
03/08:00pm 9.5 4.9 5.7 77 1.7 WSW 19 22 10 12 1023.5 1023.8 0.0
03/07:30pm 9.6 5.1 6.0 78 1.7 WSW 19 26 10 14 1023.1 1023.4 0.0
03/07:00pm 10.1 5.0 5.9 75 1.9 WSW 22 30 12 16 1023.0 1023.2 0.0
03/06:30pm 9.8 6.1 6.3 79 1.6 W 15 20 8 11 1022.4 1022.6 0.0
03/06:00pm 9.9 5.8 6.2 78 1.7 W 17 20 9 11 1022.0 1022.2 0.0
03/05:30pm 10.0 4.2 6.2 77 1.8 WSW 26 39 14 21 1021.9 1022.1 0.0
03/05:00pm 11.5 6.2 4.9 64 3.0 WSW 22 28 12 15 1021.3 1021.5 0.0
03/04:30pm 11.7 5.7 5.1 64 3.1 WSW 26 35 14 19 1021.1 1021.3 0.0
03/04:00pm 12.1 6.1 5.5 64 3.1 WSW 26 35 14 19 1020.7 1020.9 0.0
03/03:30pm 12.3 6.3 5.2 62 3.3 WSW 26 35 14 19 1020.5 1020.7 0.0
03/03:00pm 12.6 6.6 5.5 62 3.3 WSW 26 35 14 19 1020.4 1020.6 0.0
03/02:30pm 12.7 6.3 5.1 60 3.6 W 28 35 15 19 1020.2 1020.4 0.0
03/02:00pm 12.9 6.9 5.3 60 3.6 WSW 26 37 14 20 1020.4 1020.6 0.0
03/01:30pm 12.4 5.6 4.9 60 3.5 WSW 30 39 16 21 1020.5 1020.7 0.0
03/01:00pm 12.9 5.8 5.6 61 3.4 WSW 32 44 17 24 1020.7 1020.9 0.0
03/12:30pm 11.9 5.7 6.0 67 2.8 WSW 28 33 15 18 1020.9 1021.1 0.0
03/12:00pm 12.3 5.6 5.7 64 3.1 WSW 30 37 16 20 1021.1 1021.3 0.0
03/11:30am 11.8 5.8 5.4 65 3.0 WSW 26 35 14 19 1021.3 1021.5 0.0
03/11:00am 12.0 5.7 5.9 66 2.9 WSW 28 35 15 19 1021.6 1021.8 0.0
03/10:30am 11.6 6.1 5.7 67 2.8 WSW 24 32 13 17 1021.6 1021.8 0.0
03/10:00am 10.9 6.4 6.1 72 2.3 W 19 26 10 14 1021.7 1021.9 0.0
03/09:30am 9.2 4.5 6.1 81 1.4 W 20 28 11 15 1021.7 1021.9 0.0
03/09:00am 7.8 3.8 4.9 82 1.3 W 15 22 8 12 1021.7 1021.9 0.0
03/08:30am 6.8 3.1 4.5 85 1.0 W 13 19 7 10 1021.4 1021.6 0.0
03/08:00am 6.2 2.8 4.2 87 0.9 W 11 17 6 9 1021.4 1021.6 0.0
03/07:30am 5.9 2.4 3.7 86 0.9 W 11 15 6 8 1021.1 1021.3 0.0
03/07:00am 5.5 1.6 3.5 87 0.8 W 13 17 7 9 1020.8 1021.0 0.0
03/06:30am 5.7 1.9 3.7 87 0.9 W 13 19 7 10 1020.6 1020.8 0.0
03/06:00am 5.4 1.9 3.6 88 0.8 W 11 15 6 8 1020.5 1020.7 0.0
03/05:30am 5.5 1.7 3.8 89 0.7 W 13 17 7 9 1020.3 1020.5 0.0
03/05:00am 4.3 0.8 3.6 95 0.3 WNW 11 13 6 7 1020.4 1020.6 0.0
03/04:30am 3.5 -0.5 2.9 96 0.2 WNW 13 13 7 7 1020.3 1020.5 0.0
03/04:00am 2.5 -0.9 1.9 96 0.2 NW 9 13 5 7 1020.2 1020.4 0.0
03/03:30am 1.2 -1.9 0.3 94 0.3 WNW 6 11 3 6 1020.2 1020.4 0.0
03/03:00am 1.7 -0.1 1.0 95 0.3 CALM 0 0 0 0 1020.3 1020.5 0.0
03/02:30am 2.0 0.2 1.4 96 0.2 CALM 0 0 0 0 1020.5 1020.7 0.0
03/02:00am 1.3 -2.0 0.4 94 0.3 NNE 7 9 4 5 1020.7 1020.9 0.0
03/01:30am 1.4 -1.7 0.1 91 0.5 ENE 6 7 3 4 1020.9 1021.1 0.0
03/01:00am 2.2 0.3 0.7 90 0.6 CALM 0 0 0 0 1021.0 1021.2 0.0
03/12:30am 3.5 0.7 2.0 90 0.6 WNW 6 7 3 4 1021.0 1021.2 0.0
03/12:00am 3.8 0.1 2.6 92 0.5 WNW 11 11 6 6 1021.1 1021.3 0.0
 
Date/Time
EST
Temp
°C
App
Temp
°C
Dew
Point
Rel
Hum
%
Delta-T
°C
Wind Press
QNH
hPa
Press
MSL
hPa
Rain
since 9 am
mm
Dir
 
Spd
km/h
Gust
km/h
Spd
kts
Gust
kts
02/11:30pm 4.0 1.1 2.7 91 0.5 WNW 7 9 4 5 1021.1 1021.3 0.0
02/11:00pm 3.8 1.0 2.0 88 0.7 WSW 6 7 3 4 1021.3 1021.5 0.0
02/10:30pm 4.2 1.4 1.9 85 0.9 W 6 9 3 5 1021.4 1021.6 0.0
02/10:00pm 5.5 3.4 3.7 88 0.8 SW 4 6 2 3 1021.3 1021.5 0.0
02/09:30pm 5.8 2.7 3.6 86 0.9 SW 9 13 5 7 1021.2 1021.4 0.0
02/09:00pm 6.6 3.2 4.1 84 1.1 SW 11 11 6 6 1020.9 1021.1 0.0
02/08:30pm 7.5 3.8 4.3 80 1.4 SW 13 15 7 8 1020.6 1020.8 0.0
02/08:00pm 9.1 4.3 4.9 75 1.9 SW 19 24 10 13 1020.3 1020.5 0.0
02/07:30pm 10.4 6.3 6.4 76 1.9 SW 17 24 9 13 1019.9 1020.1 0.0
02/07:00pm 10.6 7.4 6.9 78 1.8 WSW 13 17 7 9 1019.2 1019.5 0.0
02/06:30pm 10.9 8.1 7.0 77 1.9 WSW 11 15 6 8 1018.9 1019.2 0.0
02/06:00pm 11.1 8.4 7.2 77 1.9 SW 11 13 6 7 1018.4 1018.6 0.0
02/05:30pm 11.2 8.1 7.1 76 2.0 WSW 13 20 7 11 1017.9 1018.1 0.0
02/05:00pm 11.4 7.1 6.9 74 2.2 SW 19 24 10 13 1017.5 1017.7 0.0
02/04:30pm 12.4 7.6 7.5 72 2.4 SW 22 28 12 15 1017.2 1017.4 0.0
02/04:00pm 12.5 8.4 8.8 78 1.9 SW 20 26 11 14 1017.1 1017.3 0.0
02/03:30pm 12.9 8.0 8.6 75 2.2 SW 24 33 13 18 1016.3 1016.5 0.0
02/03:00pm 13.5 7.0 9.0 74 2.3 SW 33 41 18 22 1015.7 1015.9 0.0
02/02:30pm 14.4 9.7 9.4 72 2.6 WSW 24 30 13 16 1014.6 1014.8 0.0
02/02:00pm 16.0 9.9 10.3 69 3.0 WSW 33 46 18 25 1014.7 1014.9 0.0
02/01:30pm 17.5 12.4 10.6 64 3.7 WSW 28 41 15 22 1013.9 1014.1 0.0
02/01:00pm 17.8 11.7 8.4 54 4.9 WSW 30 41 16 22 1013.6 1013.8 0.0
02/12:30pm 18.4 12.1 7.5 49 5.6 WSW 30 39 16 21 1013.9 1014.1 0.0
02/12:00pm 20.4 15.8 6.7 41 7.0 WNW 20 32 11 17 1013.7 1013.9 0.0
02/11:30am 20.2 15.4 7.2 43 6.7 NW 22 30 12 16 1014.1 1014.2 0.0
02/11:00am 18.9 13.8 6.1 43 6.4 NNW 22 28 12 15 1014.2 1014.3 0.0
02/10:30am 17.4 12.8 6.3 48 5.5 N 20 28 11 15 1014.3 1014.4 0.0
02/10:00am 17.2 11.1 6.7 50 5.2 N 28 35 15 19 1014.4 1014.6 0.0
02/09:30am 16.3 10.8 5.9 50 5.1 NNW 24 32 13 17 1014.4 1014.6 0.0
02/09:00am 15.0 10.2 5.8 54 4.4 NNW 20 28 11 15 1014.4 1014.6 0.0
02/08:30am 14.0 8.7 4.9 54 4.3 N 22 30 12 16 1013.9 1014.1 0.0
02/08:00am 13.6 7.8 4.5 54 4.2 N 24 30 13 16 1013.6 1013.8 0.0
02/07:30am 13.6 9.5 4.5 54 4.2 N 15 24 8 13 1013.7 1013.9 0.0
02/07:00am 13.2 10.9 4.6 56 4.0 NNW 6 9 3 5 1013.7 1013.9 0.0
02/06:30am 13.9 8.4 4.2 52 4.5 NNW 22 35 12 19 1013.6 1013.8 0.0
02/06:00am 14.2 6.7 4.2 51 4.6 N 33 43 18 23 1012.8 1013.0 0.0
02/05:30am 14.1 6.6 4.7 53 4.4 N 33 41 18 22 1012.9 1013.1 0.0
02/05:00am 14.3 6.4 4.6 52 4.5 N 35 43 19 23 1012.9 1013.1 0.0
02/04:30am 14.3 6.4 4.6 52 4.5 N 35 46 19 25 1012.8 1013.0 0.0
02/04:00am 14.5 6.3 4.8 52 4.6 N 37 46 20 25 1012.8 1013.0 0.0
02/03:30am 14.4 7.0 5.0 53 4.4 N 33 41 18 22 1013.1 1013.3 0.0
02/03:00am 14.5 7.2 5.3 54 4.4 N 33 41 18 22 1013.5 1013.7 0.0
02/02:30am 13.9 6.9 5.8 58 3.9 N 32 37 17 20 1013.8 1014.0 0.0
02/02:00am 13.6 7.3 5.7 59 3.8 N 28 32 15 17 1014.3 1014.4 0.0
02/01:30am 14.2 7.9 5.8 57 4.0 N 28 35 15 19 1014.5 1014.7 0.0
02/01:00am 14.6 8.4 6.2 57 4.1 N 28 33 15 18 1014.5 1014.7 0.0
02/12:30am 14.3 9.0 6.6 60 3.8 N 24 30 13 16 1014.9 1015.1 0.0
02/12:00am 14.3 8.6 6.6 60 3.8 N 26 35 14 19 1014.8 1015.0 0.0
 
Date/Time
EST
Temp
°C
App
Temp
°C
Dew
Point
Rel
Hum
%
Delta-T
°C
Wind Press
QNH
hPa
Press
MSL
hPa
Rain
since 9 am
mm
Dir
 
Spd
km/h
Gust
km/h
Spd
kts
Gust
kts
01/11:30pm 14.7 9.0 6.8 59 3.9 N 26 35 14 19 1015.1 1015.3 0.0
01/11:00pm 15.4 9.4 6.9 57 4.2 N 28 35 15 19 1015.2 1015.4 0.0
01/10:30pm 15.0 9.5 7.5 61 3.8 N 26 32 14 17 1015.3 1015.5 0.0
01/10:00pm 13.1 9.0 8.0 71 2.5 NNE 19 22 10 12 1015.7 1015.9 0.0
01/09:30pm 12.4 9.2 6.9 69 2.7 NNE 13 15 7 8 1016.2 1016.4 0.0
01/09:00pm 14.1 13.3 6.5 60 3.7 CALM 0 0 0 0 1016.8 1017.0 0.0
01/08:30pm 15.3 12.0 6.3 55 4.4 N 13 19 7 10 1017.1 1017.3 0.0
01/08:00pm 16.8 12.7 6.0 49 5.3 N 17 20 9 11 1017.0 1017.2 0.0
01/07:30pm 17.6 12.8 5.5 45 5.9 N 20 24 11 13 1016.9 1017.1 0.0
01/07:00pm 17.8 12.0 4.4 41 6.4 N 24 30 13 16 1016.8 1017.0 0.0
01/06:30pm 18.0 12.5 3.9 39 6.7 N 22 28 12 15 1016.3 1016.5 0.0
01/06:00pm 18.4 12.8 3.5 37 7.0 N 22 30 12 16 1015.9 1016.1 0.0
01/05:30pm 19.0 13.0 3.2 35 7.5 N 24 30 13 16 1015.8 1016.0 0.0
01/05:00pm 19.6 14.4 3.3 34 7.7 N 20 26 11 14 1015.6 1015.8 0.0
01/04:30pm 19.6 14.8 4.5 37 7.3 N 19 22 10 12 1015.7 1015.9 0.0
01/04:00pm 20.4 15.6 2.7 31 8.3 NNW 17 24 9 13 1015.9 1016.1 0.0
01/03:30pm 20.7 15.6 3.0 31 8.4 NNW 19 24 10 13 1016.1 1016.3 0.0
01/03:00pm 21.6 15.1 2.8 29 9.0 NW 26 35 14 19 1016.0 1016.2 0.0
01/02:30pm 22.6 17.5 3.2 28 9.4 NW 19 26 10 14 1016.1 1016.3 0.0
01/02:00pm 21.9 17.0 5.3 34 8.3 NNW 20 32 11 17 1016.2 1016.4 0.0
01/01:30pm 20.9 15.4 4.0 33 8.2 NNW 22 28 12 15 1016.5 1016.7 0.0
01/01:00pm 19.7 15.6 6.4 42 6.7 N 17 24 9 13 1016.9 1017.1 0.0
01/12:30pm 19.7 14.3 4.6 37 7.4 NNW 22 26 12 14 1017.4 1017.6 0.0
01/12:00pm 18.2 12.2 3.3 37 7.0 NNW 24 32 13 17 1018.0 1018.2 0.0
01/11:30am 18.4 12.0 3.1 36 7.2 NNW 26 35 14 19 1018.1 1018.3 0.0
01/11:00am 17.2 12.3 5.2 45 5.8 NNW 20 30 11 16 1018.5 1018.7 0.0
01/10:30am 16.1 11.2 5.1 48 5.3 N 20 28 11 15 1018.7 1019.0 0.0
01/10:00am 15.1 9.5 5.3 52 4.7 N 24 32 13 17 1018.6 1018.8 0.0
01/09:30am 13.6 8.4 5.3 57 3.9 N 22 30 12 16 1018.4 1018.7 0.0
01/09:00am 13.0 7.8 5.4 60 3.6 N 22 30 12 16 1018.8 1019.1 0.0
01/08:30am 12.3 7.5 5.5 63 3.2 N 20 26 11 14 1018.8 1019.1 0.0
01/08:00am 11.6 7.7 5.3 65 2.9 N 15 20 8 11 1018.9 1019.2 0.0
01/07:30am 10.8 7.0 5.6 70 2.4 N 15 20 8 11 1018.5 1018.8 0.0
01/07:00am 10.8 8.4 5.3 69 2.5 N 7 11 4 6 1018.6 1018.9 0.0
01/06:30am 10.5 5.9 5.5 71 2.3 N 19 22 10 12 1018.1 1018.4 0.0
01/06:00am 10.8 6.9 5.3 69 2.5 N 15 22 8 12 1017.9 1018.2 0.0
01/05:30am 10.5 7.8 5.7 72 2.2 N 9 13 5 7 1017.9 1018.2 0.0
01/05:00am 9.9 6.8 5.5 74 2.0 NNE 11 15 6 8 1017.8 1018.1 0.0
01/04:30am 9.4 7.0 5.4 76 1.8 NNE 7 11 4 6 1018.3 1018.6 0.0
01/04:00am 9.4 6.6 5.2 75 1.9 NNW 9 15 5 8 1018.4 1018.7 0.0
01/03:30am 9.0 3.7 5.0 76 1.8 N 22 26 12 14 1018.2 1018.5 0.0
01/03:00am 9.2 4.8 5.0 75 1.9 N 17 22 9 12 1018.7 1019.0 0.0
01/02:30am 9.4 4.5 5.2 75 1.9 N 20 22 11 12 1019.2 1019.6 0.0
01/02:00am 9.4 4.5 5.2 75 1.9 N 20 24 11 13 1019.6 1019.9 0.0
01/01:30am 9.6 4.4 5.6 76 1.8 N 22 28 12 15 1019.7 1020.0 0.0
01/01:00am 9.1 4.8 5.3 77 1.7 N 17 20 9 11 1019.9 1020.2 0.0
01/12:30am 9.3 4.6 5.9 79 1.6 N 20 24 11 13 1020.1 1020.4 0.0
01/12:00am 6.9 3.6 6.2 95 0.3 NNE 13 15 7 8 1020.4 1020.7 0.0
 
Date/Time
EST
Temp
°C
App
Temp
°C
Dew
Point
Rel
Hum
%
Delta-T
°C
Wind Press
QNH
hPa
Press
MSL
hPa
Rain
since 9 am
mm
Dir
 
Spd
km/h
Gust
km/h
Spd
kts
Gust
kts
31/11:30pm 4.9 3.6 4.2 95 0.3 CALM 0 6 0 3 1020.7 1021.0 0.0

Other Formats:

Comma delimited format used in spreadsheet applications
http://www.bom.gov.au/fwo/IDN60801/IDN60801.95708.axf

JavaScript Object Notation format (JSON) in row-major order
http://www.bom.gov.au/fwo/IDN60801/IDN60801.95708.json